sensor_id;sensor_type;location;lat;lon;timestamp;P1;durP1;ratioP1;P2;durP2;ratioP2
65033;SDS011;51601;51.356;12.458;2024-01-16T00:04:07;8.43;;;3.72;;
65033;SDS011;51601;51.356;12.458;2024-01-16T00:08:26;6.03;;;1.70;;
65033;SDS011;51601;51.356;12.458;2024-01-16T00:12:44;6.68;;;2.10;;
65033;SDS011;51601;51.356;12.458;2024-01-16T00:17:03;6.97;;;2.60;;
65033;SDS011;51601;51.356;12.458;2024-01-16T00:21:25;4.63;;;1.53;;
65033;SDS011;51601;51.356;12.458;2024-01-16T00:25:42;3.53;;;1.33;;
65033;SDS011;51601;51.356;12.458;2024-01-16T00:30:00;4.65;;;1.80;;
65033;SDS011;51601;51.356;12.458;2024-01-16T00:34:18;5.00;;;2.10;;
65033;SDS011;51601;51.356;12.458;2024-01-16T00:38:37;6.40;;;2.20;;
65033;SDS011;51601;51.356;12.458;2024-01-16T00:42:55;3.97;;;1.60;;
65033;SDS011;51601;51.356;12.458;2024-01-16T00:47:12;5.57;;;2.42;;
65033;SDS011;51601;51.356;12.458;2024-01-16T00:51:30;4.07;;;1.50;;
65033;SDS011;51601;51.356;12.458;2024-01-16T00:55:49;3.80;;;1.33;;
65033;SDS011;51601;51.356;12.458;2024-01-16T01:00:09;5.93;;;2.05;;
65033;SDS011;51601;51.356;12.458;2024-01-16T01:04:27;4.20;;;1.63;;
65033;SDS011;51601;51.356;12.458;2024-01-16T01:08:45;4.85;;;1.63;;
65033;SDS011;51601;51.356;12.458;2024-01-16T01:13:05;5.55;;;1.70;;
65033;SDS011;51601;51.356;12.458;2024-01-16T01:17:24;4.00;;;1.37;;
65033;SDS011;51601;51.356;12.458;2024-01-16T01:21:43;6.38;;;1.85;;
65033;SDS011;51601;51.356;12.458;2024-01-16T01:26:01;4.72;;;1.85;;
65033;SDS011;51601;51.356;12.458;2024-01-16T01:30:20;3.88;;;1.30;;
65033;SDS011;51601;51.356;12.458;2024-01-16T01:34:41;3.93;;;1.47;;
65033;SDS011;51601;51.356;12.458;2024-01-16T01:38:58;4.60;;;1.52;;
65033;SDS011;51601;51.356;12.458;2024-01-16T01:43:16;4.65;;;1.40;;
65033;SDS011;51601;51.356;12.458;2024-01-16T01:47:38;3.70;;;1.57;;
65033;SDS011;51601;51.356;12.458;2024-01-16T01:51:58;5.55;;;1.60;;
65033;SDS011;51601;51.356;12.458;2024-01-16T01:56:17;4.35;;;1.45;;
65033;SDS011;51601;51.356;12.458;2024-01-16T02:00:34;3.70;;;1.20;;
65033;SDS011;51601;51.356;12.458;2024-01-16T02:04:54;2.63;;;0.85;;
65033;SDS011;51601;51.356;12.458;2024-01-16T02:09:13;4.53;;;1.20;;
65033;SDS011;51601;51.356;12.458;2024-01-16T02:13:31;3.00;;;1.15;;
65033;SDS011;51601;51.356;12.458;2024-01-16T02:17:50;3.30;;;1.03;;
65033;SDS011;51601;51.356;12.458;2024-01-16T02:22:09;2.75;;;1.20;;
65033;SDS011;51601;51.356;12.458;2024-01-16T02:26:39;2.97;;;1.23;;
65033;SDS011;51601;51.356;12.458;2024-01-16T02:30:59;5.37;;;1.80;;
65033;SDS011;51601;51.356;12.458;2024-01-16T02:35:17;3.00;;;1.00;;
65033;SDS011;51601;51.356;12.458;2024-01-16T02:39:35;2.78;;;1.08;;
65033;SDS011;51601;51.356;12.458;2024-01-16T02:43:55;3.73;;;1.13;;
65033;SDS011;51601;51.356;12.458;2024-01-16T02:48:14;3.22;;;1.20;;
65033;SDS011;51601;51.356;12.458;2024-01-16T02:52:32;2.28;;;1.10;;
65033;SDS011;51601;51.356;12.458;2024-01-16T02:56:50;2.17;;;0.90;;
65033;SDS011;51601;51.356;12.458;2024-01-16T03:01:10;4.07;;;1.10;;
65033;SDS011;51601;51.356;12.458;2024-01-16T03:05:30;2.05;;;0.90;;
65033;SDS011;51601;51.356;12.458;2024-01-16T03:09:48;2.42;;;0.93;;
65033;SDS011;51601;51.356;12.458;2024-01-16T03:14:06;2.23;;;0.90;;
65033;SDS011;51601;51.356;12.458;2024-01-16T03:18:25;2.80;;;1.00;;
65033;SDS011;51601;51.356;12.458;2024-01-16T03:22:45;2.40;;;1.13;;
65033;SDS011;51601;51.356;12.458;2024-01-16T03:27:03;3.17;;;1.00;;
65033;SDS011;51601;51.356;12.458;2024-01-16T03:31:21;3.03;;;1.17;;
65033;SDS011;51601;51.356;12.458;2024-01-16T03:35:40;4.40;;;1.10;;
65033;SDS011;51601;51.356;12.458;2024-01-16T03:40:00;2.85;;;1.00;;
65033;SDS011;51601;51.356;12.458;2024-01-16T03:44:18;1.97;;;0.87;;
65033;SDS011;51601;51.356;12.458;2024-01-16T03:48:36;3.72;;;0.93;;
65033;SDS011;51601;51.356;12.458;2024-01-16T03:52:56;3.30;;;1.00;;
65033;SDS011;51601;51.356;12.458;2024-01-16T03:57:12;6.87;;;1.50;;
65033;SDS011;51601;51.356;12.458;2024-01-16T04:01:30;1.90;;;0.90;;
65033;SDS011;51601;51.356;12.458;2024-01-16T04:05:48;2.75;;;1.10;;
65033;SDS011;51601;51.356;12.458;2024-01-16T04:10:08;2.40;;;1.17;;
65033;SDS011;51601;51.356;12.458;2024-01-16T04:14:28;8.50;;;1.65;;
65033;SDS011;51601;51.356;12.458;2024-01-16T04:18:46;5.82;;;1.45;;
65033;SDS011;51601;51.356;12.458;2024-01-16T04:23:04;2.95;;;0.90;;
65033;SDS011;51601;51.356;12.458;2024-01-16T04:27:23;2.63;;;0.97;;
65033;SDS011;51601;51.356;12.458;2024-01-16T04:31:40;2.90;;;1.08;;
65033;SDS011;51601;51.356;12.458;2024-01-16T04:35:58;3.58;;;1.10;;
65033;SDS011;51601;51.356;12.458;2024-01-16T04:40:16;4.57;;;1.43;;
65033;SDS011;51601;51.356;12.458;2024-01-16T04:44:36;4.88;;;1.10;;
65033;SDS011;51601;51.356;12.458;2024-01-16T04:48:55;3.78;;;1.35;;
65033;SDS011;51601;51.356;12.458;2024-01-16T04:53:13;2.20;;;0.93;;
65033;SDS011;51601;51.356;12.458;2024-01-16T04:57:31;5.68;;;1.65;;
65033;SDS011;51601;51.356;12.458;2024-01-16T05:01:51;3.75;;;1.33;;
65033;SDS011;51601;51.356;12.458;2024-01-16T05:06:14;3.65;;;1.13;;
65033;SDS011;51601;51.356;12.458;2024-01-16T05:10:35;4.00;;;1.63;;
65033;SDS011;51601;51.356;12.458;2024-01-16T05:14:53;4.45;;;1.48;;
65033;SDS011;51601;51.356;12.458;2024-01-16T05:19:12;5.47;;;1.20;;
65033;SDS011;51601;51.356;12.458;2024-01-16T05:23:32;3.90;;;1.23;;
65033;SDS011;51601;51.356;12.458;2024-01-16T05:27:50;5.35;;;1.75;;
65033;SDS011;51601;51.356;12.458;2024-01-16T05:32:08;4.13;;;1.25;;
65033;SDS011;51601;51.356;12.458;2024-01-16T05:36:28;3.60;;;1.40;;
65033;SDS011;51601;51.356;12.458;2024-01-16T05:40:47;4.10;;;1.67;;
65033;SDS011;51601;51.356;12.458;2024-01-16T05:45:06;4.85;;;1.63;;
65033;SDS011;51601;51.356;12.458;2024-01-16T05:49:23;4.18;;;1.02;;
65033;SDS011;51601;51.356;12.458;2024-01-16T05:53:43;5.13;;;1.57;;
65033;SDS011;51601;51.356;12.458;2024-01-16T05:57:59;6.68;;;1.65;;
65033;SDS011;51601;51.356;12.458;2024-01-16T06:02:17;6.13;;;1.42;;
65033;SDS011;51601;51.356;12.458;2024-01-16T06:06:35;3.33;;;1.20;;
65033;SDS011;51601;51.356;12.458;2024-01-16T06:10:55;3.15;;;1.15;;
65033;SDS011;51601;51.356;12.458;2024-01-16T06:15:12;3.95;;;1.20;;
65033;SDS011;51601;51.356;12.458;2024-01-16T06:19:30;5.30;;;1.60;;
65033;SDS011;51601;51.356;12.458;2024-01-16T06:23:48;3.92;;;1.00;;
65033;SDS011;51601;51.356;12.458;2024-01-16T06:28:07;2.47;;;0.95;;
65033;SDS011;51601;51.356;12.458;2024-01-16T06:32:27;4.35;;;1.10;;
65033;SDS011;51601;51.356;12.458;2024-01-16T06:36:45;2.87;;;0.83;;
65033;SDS011;51601;51.356;12.458;2024-01-16T06:41:03;5.85;;;1.30;;
65033;SDS011;51601;51.356;12.458;2024-01-16T06:45:22;3.38;;;1.25;;
65033;SDS011;51601;51.356;12.458;2024-01-16T06:49:42;14.07;;;1.80;;
65033;SDS011;51601;51.356;12.458;2024-01-16T06:54:00;4.28;;;1.33;;
65033;SDS011;51601;51.356;12.458;2024-01-16T06:58:18;6.88;;;1.63;;
65033;SDS011;51601;51.356;12.458;2024-01-16T07:02:38;4.60;;;1.50;;
65033;SDS011;51601;51.356;12.458;2024-01-16T07:06:54;3.72;;;1.23;;
65033;SDS011;51601;51.356;12.458;2024-01-16T07:11:13;6.35;;;2.20;;
65033;SDS011;51601;51.356;12.458;2024-01-16T07:15:30;6.47;;;2.10;;
65033;SDS011;51601;51.356;12.458;2024-01-16T07:19:50;4.13;;;1.67;;
65033;SDS011;51601;51.356;12.458;2024-01-16T07:24:10;4.82;;;0.95;;
65033;SDS011;51601;51.356;12.458;2024-01-16T07:28:28;9.27;;;1.80;;
65033;SDS011;51601;51.356;12.458;2024-01-16T07:32:46;3.80;;;1.57;;
65033;SDS011;51601;51.356;12.458;2024-01-16T07:37:05;5.63;;;1.92;;
65033;SDS011;51601;51.356;12.458;2024-01-16T07:41:25;5.85;;;1.77;;
65033;SDS011;51601;51.356;12.458;2024-01-16T07:45:43;5.37;;;1.47;;
65033;SDS011;51601;51.356;12.458;2024-01-16T07:50:01;9.57;;;3.15;;
65033;SDS011;51601;51.356;12.458;2024-01-16T07:54:24;8.88;;;2.42;;
65033;SDS011;51601;51.356;12.458;2024-01-16T07:58:44;6.47;;;2.13;;
65033;SDS011;51601;51.356;12.458;2024-01-16T08:03:01;3.77;;;1.67;;
65033;SDS011;51601;51.356;12.458;2024-01-16T08:07:20;4.25;;;1.60;;
65033;SDS011;51601;51.356;12.458;2024-01-16T08:11:39;7.43;;;2.17;;
65033;SDS011;51601;51.356;12.458;2024-01-16T08:15:56;5.43;;;2.17;;
65033;SDS011;51601;51.356;12.458;2024-01-16T08:20:14;5.15;;;1.73;;
65033;SDS011;51601;51.356;12.458;2024-01-16T08:24:32;4.18;;;1.38;;
65033;SDS011;51601;51.356;12.458;2024-01-16T08:28:51;5.03;;;1.87;;
65033;SDS011;51601;51.356;12.458;2024-01-16T08:33:11;5.65;;;2.30;;
65033;SDS011;51601;51.356;12.458;2024-01-16T08:37:29;3.92;;;1.33;;
65033;SDS011;51601;51.356;12.458;2024-01-16T08:41:47;6.18;;;1.58;;
65033;SDS011;51601;51.356;12.458;2024-01-16T08:46:06;8.63;;;1.83;;
65033;SDS011;51601;51.356;12.458;2024-01-16T08:50:28;10.60;;;2.17;;
65033;SDS011;51601;51.356;12.458;2024-01-16T08:54:48;5.05;;;1.80;;
65033;SDS011;51601;51.356;12.458;2024-01-16T08:59:05;4.70;;;1.70;;
65033;SDS011;51601;51.356;12.458;2024-01-16T09:03:25;4.63;;;1.67;;
65033;SDS011;51601;51.356;12.458;2024-01-16T09:07:41;5.50;;;1.90;;
65033;SDS011;51601;51.356;12.458;2024-01-16T09:11:59;7.30;;;2.80;;
65033;SDS011;51601;51.356;12.458;2024-01-16T09:16:18;5.65;;;1.80;;
65033;SDS011;51601;51.356;12.458;2024-01-16T09:20:37;4.32;;;1.50;;
65033;SDS011;51601;51.356;12.458;2024-01-16T09:24:57;6.65;;;1.65;;
65033;SDS011;51601;51.356;12.458;2024-01-16T09:29:15;7.60;;;1.90;;
65033;SDS011;51601;51.356;12.458;2024-01-16T09:33:33;6.55;;;1.88;;
65033;SDS011;51601;51.356;12.458;2024-01-16T09:37:52;5.75;;;1.85;;
65033;SDS011;51601;51.356;12.458;2024-01-16T09:42:09;5.23;;;1.90;;
65033;SDS011;51601;51.356;12.458;2024-01-16T09:46:27;9.20;;;3.10;;
65033;SDS011;51601;51.356;12.458;2024-01-16T09:50:48;7.18;;;1.95;;
65033;SDS011;51601;51.356;12.458;2024-01-16T09:55:08;7.77;;;1.77;;
65033;SDS011;51601;51.356;12.458;2024-01-16T09:59:28;5.55;;;2.03;;
65033;SDS011;51601;51.356;12.458;2024-01-16T10:03:48;6.68;;;2.35;;
65033;SDS011;51601;51.356;12.458;2024-01-16T10:08:10;9.65;;;2.42;;
65033;SDS011;51601;51.356;12.458;2024-01-16T10:12:29;9.70;;;2.43;;
65033;SDS011;51601;51.356;12.458;2024-01-16T10:16:55;7.13;;;1.85;;
65033;SDS011;51601;51.356;12.458;2024-01-16T10:21:19;7.05;;;2.05;;
65033;SDS011;51601;51.356;12.458;2024-01-16T10:25:40;6.07;;;2.00;;
65033;SDS011;51601;51.356;12.458;2024-01-16T10:30:00;4.68;;;1.42;;
65033;SDS011;51601;51.356;12.458;2024-01-16T10:34:20;4.78;;;1.98;;
65033;SDS011;51601;51.356;12.458;2024-01-16T10:38:41;10.90;;;2.93;;
65033;SDS011;51601;51.356;12.458;2024-01-16T10:43:02;9.35;;;2.65;;
65033;SDS011;51601;51.356;12.458;2024-01-16T10:47:22;5.47;;;2.17;;
65033;SDS011;51601;51.356;12.458;2024-01-16T10:51:42;5.68;;;1.95;;
65033;SDS011;51601;51.356;12.458;2024-01-16T10:56:02;6.30;;;1.97;;
65033;SDS011;51601;51.356;12.458;2024-01-16T11:00:26;9.02;;;2.20;;
65033;SDS011;51601;51.356;12.458;2024-01-16T11:04:49;4.85;;;1.52;;
65033;SDS011;51601;51.356;12.458;2024-01-16T11:09:09;6.77;;;2.20;;
65033;SDS011;51601;51.356;12.458;2024-01-16T11:13:33;6.15;;;1.90;;
65033;SDS011;51601;51.356;12.458;2024-01-16T11:17:54;10.05;;;2.60;;
65033;SDS011;51601;51.356;12.458;2024-01-16T11:22:13;10.13;;;2.90;;
65033;SDS011;51601;51.356;12.458;2024-01-16T11:26:33;6.78;;;2.03;;
65033;SDS011;51601;51.356;12.458;2024-01-16T11:30:55;6.03;;;1.83;;
65033;SDS011;51601;51.356;12.458;2024-01-16T11:35:12;5.03;;;1.73;;
65033;SDS011;51601;51.356;12.458;2024-01-16T11:39:50;6.57;;;2.20;;
65033;SDS011;51601;51.356;12.458;2024-01-16T11:44:39;7.03;;;2.17;;
65033;SDS011;51601;51.356;12.458;2024-01-16T11:49:01;4.22;;;1.30;;
65033;SDS011;51601;51.356;12.458;2024-01-16T11:53:36;6.30;;;1.87;;
65033;SDS011;51601;51.356;12.458;2024-01-16T11:58:02;9.55;;;2.60;;
65033;SDS011;51601;51.356;12.458;2024-01-16T12:02:44;9.38;;;2.35;;
65033;SDS011;51601;51.356;12.458;2024-01-16T12:07:09;9.47;;;2.63;;
65033;SDS011;51601;51.356;12.458;2024-01-16T12:11:27;8.38;;;2.90;;
65033;SDS011;51601;51.356;12.458;2024-01-16T12:16:02;8.18;;;2.63;;
65033;SDS011;51601;51.356;12.458;2024-01-16T12:20:22;5.57;;;1.77;;
65033;SDS011;51601;51.356;12.458;2024-01-16T12:24:43;4.77;;;1.93;;
65033;SDS011;51601;51.356;12.458;2024-01-16T12:29:01;13.07;;;2.97;;
65033;SDS011;51601;51.356;12.458;2024-01-16T12:33:22;10.68;;;3.05;;
65033;SDS011;51601;51.356;12.458;2024-01-16T12:37:40;9.77;;;3.33;;
65033;SDS011;51601;51.356;12.458;2024-01-16T12:41:58;3.75;;;1.55;;
65033;SDS011;51601;51.356;12.458;2024-01-16T12:46:16;6.10;;;2.63;;
65033;SDS011;51601;51.356;12.458;2024-01-16T12:50:36;6.43;;;2.30;;
65033;SDS011;51601;51.356;12.458;2024-01-16T12:54:59;9.00;;;2.63;;
65033;SDS011;51601;51.356;12.458;2024-01-16T12:59:26;9.02;;;2.53;;
65033;SDS011;51601;51.356;12.458;2024-01-16T13:03:47;9.27;;;2.50;;
65033;SDS011;51601;51.356;12.458;2024-01-16T13:08:16;7.10;;;3.10;;
65033;SDS011;51601;51.356;12.458;2024-01-16T13:12:36;7.80;;;2.28;;
65033;SDS011;51601;51.356;12.458;2024-01-16T13:16:54;8.65;;;2.53;;
65033;SDS011;51601;51.356;12.458;2024-01-16T13:21:12;5.13;;;1.63;;
65033;SDS011;51601;51.356;12.458;2024-01-16T13:25:31;5.07;;;2.20;;
65033;SDS011;51601;51.356;12.458;2024-01-16T13:29:51;6.30;;;2.13;;
65033;SDS011;51601;51.356;12.458;2024-01-16T13:34:12;8.20;;;2.83;;
65033;SDS011;51601;51.356;12.458;2024-01-16T13:38:33;6.78;;;2.55;;
65033;SDS011;51601;51.356;12.458;2024-01-16T13:42:53;7.40;;;2.40;;
65033;SDS011;51601;51.356;12.458;2024-01-16T13:47:13;9.27;;;2.65;;
65033;SDS011;51601;51.356;12.458;2024-01-16T13:51:43;7.20;;;2.60;;
65033;SDS011;51601;51.356;12.458;2024-01-16T13:56:01;11.13;;;2.15;;
65033;SDS011;51601;51.356;12.458;2024-01-16T14:00:20;8.23;;;2.67;;
65033;SDS011;51601;51.356;12.458;2024-01-16T14:04:40;6.17;;;2.47;;
65033;SDS011;51601;51.356;12.458;2024-01-16T14:08:58;8.52;;;3.28;;
65033;SDS011;51601;51.356;12.458;2024-01-16T14:13:16;6.13;;;1.95;;
65033;SDS011;51601;51.356;12.458;2024-01-16T14:17:35;7.13;;;2.60;;
65033;SDS011;51601;51.356;12.458;2024-01-16T14:21:55;5.80;;;1.95;;
65033;SDS011;51601;51.356;12.458;2024-01-16T14:26:13;6.97;;;2.17;;
65033;SDS011;51601;51.356;12.458;2024-01-16T14:30:32;6.47;;;2.20;;
65033;SDS011;51601;51.356;12.458;2024-01-16T14:34:51;4.20;;;1.63;;
65033;SDS011;51601;51.356;12.458;2024-01-16T14:39:11;7.22;;;2.42;;
65033;SDS011;51601;51.356;12.458;2024-01-16T14:43:35;6.38;;;1.85;;
65033;SDS011;51601;51.356;12.458;2024-01-16T14:47:53;6.07;;;1.80;;
65033;SDS011;51601;51.356;12.458;2024-01-16T14:52:12;8.30;;;1.90;;
65033;SDS011;51601;51.356;12.458;2024-01-16T14:56:32;7.50;;;2.55;;
65033;SDS011;51601;51.356;12.458;2024-01-16T15:00:50;8.37;;;3.23;;
65033;SDS011;51601;51.356;12.458;2024-01-16T15:05:11;7.78;;;2.55;;
65033;SDS011;51601;51.356;12.458;2024-01-16T15:09:34;5.05;;;1.98;;
65033;SDS011;51601;51.356;12.458;2024-01-16T15:13:53;8.60;;;2.95;;
65033;SDS011;51601;51.356;12.458;2024-01-16T15:18:15;5.37;;;2.03;;
65033;SDS011;51601;51.356;12.458;2024-01-16T15:22:33;7.20;;;2.05;;
65033;SDS011;51601;51.356;12.458;2024-01-16T15:26:52;10.35;;;2.65;;
65033;SDS011;51601;51.356;12.458;2024-01-16T15:31:12;8.83;;;2.60;;
65033;SDS011;51601;51.356;12.458;2024-01-16T15:35:30;5.43;;;2.15;;
65033;SDS011;51601;51.356;12.458;2024-01-16T15:39:48;8.35;;;2.88;;
65033;SDS011;51601;51.356;12.458;2024-01-16T15:44:07;10.07;;;2.07;;
65033;SDS011;51601;51.356;12.458;2024-01-16T15:48:27;9.05;;;3.17;;
65033;SDS011;51601;51.356;12.458;2024-01-16T15:52:51;8.40;;;3.45;;
65033;SDS011;51601;51.356;12.458;2024-01-16T15:57:12;9.50;;;2.78;;
65033;SDS011;51601;51.356;12.458;2024-01-16T16:01:35;8.10;;;2.53;;
65033;SDS011;51601;51.356;12.458;2024-01-16T16:05:55;7.10;;;2.63;;
65033;SDS011;51601;51.356;12.458;2024-01-16T16:10:13;8.50;;;3.15;;
65033;SDS011;51601;51.356;12.458;2024-01-16T16:14:31;9.50;;;3.60;;
65033;SDS011;51601;51.356;12.458;2024-01-16T16:18:53;8.77;;;2.88;;
65033;SDS011;51601;51.356;12.458;2024-01-16T16:23:13;9.15;;;3.33;;
65033;SDS011;51601;51.356;12.458;2024-01-16T16:27:31;7.27;;;2.70;;
65033;SDS011;51601;51.356;12.458;2024-01-16T16:31:49;8.77;;;3.15;;
65033;SDS011;51601;51.356;12.458;2024-01-16T16:36:09;8.68;;;3.03;;
65033;SDS011;51601;51.356;12.458;2024-01-16T16:40:28;8.90;;;3.50;;
65033;SDS011;51601;51.356;12.458;2024-01-16T16:44:46;9.00;;;2.33;;
65033;SDS011;51601;51.356;12.458;2024-01-16T16:49:04;6.95;;;3.28;;
65033;SDS011;51601;51.356;12.458;2024-01-16T16:53:24;5.30;;;2.05;;
65033;SDS011;51601;51.356;12.458;2024-01-16T16:57:47;8.87;;;2.90;;
65033;SDS011;51601;51.356;12.458;2024-01-16T17:02:05;10.55;;;3.72;;
65033;SDS011;51601;51.356;12.458;2024-01-16T17:06:23;9.45;;;2.80;;
65033;SDS011;51601;51.356;12.458;2024-01-16T17:10:42;6.93;;;2.70;;
65033;SDS011;51601;51.356;12.458;2024-01-16T17:15:02;7.93;;;2.20;;
65033;SDS011;51601;51.356;12.458;2024-01-16T17:19:20;5.68;;;2.28;;
65033;SDS011;51601;51.356;12.458;2024-01-16T17:23:42;11.85;;;3.40;;
65033;SDS011;51601;51.356;12.458;2024-01-16T17:28:01;11.00;;;3.97;;
65033;SDS011;51601;51.356;12.458;2024-01-16T17:32:21;11.60;;;3.67;;
65033;SDS011;51601;51.356;12.458;2024-01-16T17:36:38;8.77;;;3.45;;
65033;SDS011;51601;51.356;12.458;2024-01-16T17:40:56;9.70;;;3.60;;
65033;SDS011;51601;51.356;12.458;2024-01-16T17:45:16;9.48;;;4.68;;
65033;SDS011;51601;51.356;12.458;2024-01-16T17:49:36;9.25;;;3.10;;
65033;SDS011;51601;51.356;12.458;2024-01-16T17:53:54;9.43;;;3.60;;
65033;SDS011;51601;51.356;12.458;2024-01-16T17:58:12;11.30;;;4.95;;
65033;SDS011;51601;51.356;12.458;2024-01-16T18:02:34;14.13;;;5.15;;
65033;SDS011;51601;51.356;12.458;2024-01-16T18:06:54;12.73;;;5.28;;
65033;SDS011;51601;51.356;12.458;2024-01-16T18:11:12;11.27;;;4.63;;
65033;SDS011;51601;51.356;12.458;2024-01-16T18:15:30;13.20;;;5.05;;
65033;SDS011;51601;51.356;12.458;2024-01-16T18:19:49;10.10;;;4.32;;
65033;SDS011;51601;51.356;12.458;2024-01-16T18:24:09;12.13;;;4.73;;
65033;SDS011;51601;51.356;12.458;2024-01-16T18:28:27;12.93;;;4.50;;
65033;SDS011;51601;51.356;12.458;2024-01-16T18:32:45;13.43;;;5.15;;
65033;SDS011;51601;51.356;12.458;2024-01-16T18:37:05;9.47;;;3.63;;
65033;SDS011;51601;51.356;12.458;2024-01-16T18:41:25;12.45;;;4.72;;
65033;SDS011;51601;51.356;12.458;2024-01-16T18:45:43;12.40;;;5.05;;
65033;SDS011;51601;51.356;12.458;2024-01-16T18:50:01;10.88;;;4.53;;
65033;SDS011;51601;51.356;12.458;2024-01-16T18:54:20;9.60;;;3.20;;
65033;SDS011;51601;51.356;12.458;2024-01-16T18:58:40;13.05;;;4.28;;
65033;SDS011;51601;51.356;12.458;2024-01-16T19:02:59;10.68;;;4.38;;
65033;SDS011;51601;51.356;12.458;2024-01-16T19:07:16;10.93;;;3.90;;
65033;SDS011;51601;51.356;12.458;2024-01-16T19:11:36;9.07;;;4.00;;
65033;SDS011;51601;51.356;12.458;2024-01-16T19:15:55;6.53;;;2.08;;
65033;SDS011;51601;51.356;12.458;2024-01-16T19:20:14;7.07;;;3.07;;
65033;SDS011;51601;51.356;12.458;2024-01-16T19:24:31;6.68;;;2.72;;
65033;SDS011;51601;51.356;12.458;2024-01-16T19:28:54;7.82;;;2.97;;
65033;SDS011;51601;51.356;12.458;2024-01-16T19:33:11;7.78;;;2.97;;
65033;SDS011;51601;51.356;12.458;2024-01-16T19:37:28;6.83;;;2.87;;
65033;SDS011;51601;51.356;12.458;2024-01-16T19:41:47;13.00;;;4.32;;
65033;SDS011;51601;51.356;12.458;2024-01-16T19:46:06;9.65;;;3.65;;
65033;SDS011;51601;51.356;12.458;2024-01-16T19:50:26;11.90;;;4.93;;
65033;SDS011;51601;51.356;12.458;2024-01-16T19:54:44;9.68;;;3.58;;
65033;SDS011;51601;51.356;12.458;2024-01-16T19:59:02;12.88;;;5.50;;
65033;SDS011;51601;51.356;12.458;2024-01-16T20:03:21;6.07;;;2.40;;
65033;SDS011;51601;51.356;12.458;2024-01-16T20:07:41;11.82;;;5.07;;
65033;SDS011;51601;51.356;12.458;2024-01-16T20:11:59;10.15;;;3.50;;
65033;SDS011;51601;51.356;12.458;2024-01-16T20:16:17;12.98;;;5.43;;
65033;SDS011;51601;51.356;12.458;2024-01-16T20:20:37;9.63;;;3.40;;
65033;SDS011;51601;51.356;12.458;2024-01-16T20:24:56;7.57;;;3.00;;
65033;SDS011;51601;51.356;12.458;2024-01-16T20:29:14;7.05;;;2.70;;
65033;SDS011;51601;51.356;12.458;2024-01-16T20:33:32;11.47;;;4.17;;
65033;SDS011;51601;51.356;12.458;2024-01-16T20:37:53;11.85;;;3.95;;
65033;SDS011;51601;51.356;12.458;2024-01-16T20:42:12;12.40;;;4.28;;
65033;SDS011;51601;51.356;12.458;2024-01-16T20:46:30;7.23;;;3.33;;
65033;SDS011;51601;51.356;12.458;2024-01-16T20:50:51;13.93;;;4.25;;
65033;SDS011;51601;51.356;12.458;2024-01-16T20:55:11;13.70;;;5.18;;
65033;SDS011;51601;51.356;12.458;2024-01-16T20:59:30;5.68;;;2.25;;
65033;SDS011;51601;51.356;12.458;2024-01-16T21:03:48;11.57;;;4.43;;
65033;SDS011;51601;51.356;12.458;2024-01-16T21:08:06;13.75;;;5.35;;
65033;SDS011;51601;51.356;12.458;2024-01-16T21:12:32;10.10;;;4.05;;
65033;SDS011;51601;51.356;12.458;2024-01-16T21:16:51;17.60;;;5.90;;
65033;SDS011;51601;51.356;12.458;2024-01-16T21:21:09;13.50;;;5.95;;
65033;SDS011;51601;51.356;12.458;2024-01-16T21:25:28;10.82;;;3.45;;
65033;SDS011;51601;51.356;12.458;2024-01-16T21:29:47;13.13;;;4.73;;
65033;SDS011;51601;51.356;12.458;2024-01-16T21:34:07;8.50;;;3.63;;
65033;SDS011;51601;51.356;12.458;2024-01-16T21:38:25;11.57;;;3.78;;
65033;SDS011;51601;51.356;12.458;2024-01-16T21:42:46;9.85;;;3.63;;
65033;SDS011;51601;51.356;12.458;2024-01-16T21:47:05;7.13;;;2.83;;
65033;SDS011;51601;51.356;12.458;2024-01-16T21:51:25;11.75;;;4.18;;
65033;SDS011;51601;51.356;12.458;2024-01-16T21:55:43;12.07;;;4.18;;
65033;SDS011;51601;51.356;12.458;2024-01-16T22:00:02;11.57;;;4.77;;
65033;SDS011;51601;51.356;12.458;2024-01-16T22:04:24;8.98;;;4.03;;
65033;SDS011;51601;51.356;12.458;2024-01-16T22:08:47;10.25;;;2.75;;
65033;SDS011;51601;51.356;12.458;2024-01-16T22:13:05;6.20;;;2.60;;
65033;SDS011;51601;51.356;12.458;2024-01-16T22:17:23;5.10;;;2.47;;
65033;SDS011;51601;51.356;12.458;2024-01-16T22:21:45;9.60;;;3.88;;
65033;SDS011;51601;51.356;12.458;2024-01-16T22:26:05;8.05;;;3.67;;
65033;SDS011;51601;51.356;12.458;2024-01-16T22:30:23;8.03;;;3.13;;
65033;SDS011;51601;51.356;12.458;2024-01-16T22:34:44;9.32;;;3.53;;
65033;SDS011;51601;51.356;12.458;2024-01-16T22:39:04;8.30;;;3.22;;
65033;SDS011;51601;51.356;12.458;2024-01-16T22:43:23;12.60;;;5.50;;
65033;SDS011;51601;51.356;12.458;2024-01-16T22:47:41;13.05;;;5.35;;
65033;SDS011;51601;51.356;12.458;2024-01-16T22:51:59;13.70;;;5.05;;
65033;SDS011;51601;51.356;12.458;2024-01-16T22:56:19;13.83;;;4.90;;
65033;SDS011;51601;51.356;12.458;2024-01-16T23:00:39;14.02;;;5.20;;
65033;SDS011;51601;51.356;12.458;2024-01-16T23:04:57;8.20;;;3.33;;
65033;SDS011;51601;51.356;12.458;2024-01-16T23:09:15;6.35;;;2.45;;
65033;SDS011;51601;51.356;12.458;2024-01-16T23:13:34;12.17;;;4.17;;
65033;SDS011;51601;51.356;12.458;2024-01-16T23:17:54;8.52;;;3.05;;
65033;SDS011;51601;51.356;12.458;2024-01-16T23:22:12;6.35;;;2.47;;
65033;SDS011;51601;51.356;12.458;2024-01-16T23:26:30;11.53;;;4.10;;
65033;SDS011;51601;51.356;12.458;2024-01-16T23:30:49;12.15;;;4.05;;
65033;SDS011;51601;51.356;12.458;2024-01-16T23:35:09;10.48;;;4.97;;
65033;SDS011;51601;51.356;12.458;2024-01-16T23:39:27;8.97;;;3.23;;
65033;SDS011;51601;51.356;12.458;2024-01-16T23:43:45;16.00;;;5.32;;
65033;SDS011;51601;51.356;12.458;2024-01-16T23:48:05;5.97;;;2.65;;
65033;SDS011;51601;51.356;12.458;2024-01-16T23:52:24;11.10;;;3.83;;
65033;SDS011;51601;51.356;12.458;2024-01-16T23:56:42;6.80;;;2.93;;
